Time;durP1;ratioP1;P1;durP2;ratioP2;P2;SDS_P1;SDS_P2;PMS_P1;PMS_P2;Temp;Humidity;BMP_temperature;BMP_pressure;BME280_temperature;BME280_humidity;BME280_pressure;Samples;Min_cycle;Max_cycle;Signal;HPM_P1;HPM_P2
2021/08/16 00:01:42;;;;;;;10.82;6.05;;;17.90;99.90;;;;;;12523315;28;20106;-86
2021/08/16 00:07:44;;;;;;;13.95;5.45;;;17.70;99.90;;;;;;12528491;28;20065;-86
2021/08/16 00:13:46;;;;;;;10.95;5.72;;;17.70;99.90;;;;;;12531519;28;20546;-85
2021/08/16 00:19:48;;;;;;;12.43;6.05;;;17.50;99.90;;;;;;12541534;28;20041;-86
2021/08/16 00:25:50;;;;;;;12.98;5.15;;;17.50;99.90;;;;;;12521008;28;20094;-86
2021/08/16 00:31:52;;;;;;;13.00;5.10;;;17.50;99.90;;;;;;12525661;28;20041;-85
2021/08/16 00:37:54;;;;;;;9.65;5.03;;;17.60;99.90;;;;;;12526886;28;20105;-86
2021/08/16 00:43:57;;;;;;;9.63;5.10;;;17.70;99.90;;;;;;12519575;28;20037;-86
2021/08/16 00:49:59;;;;;;;8.90;4.43;;;17.70;99.90;;;;;;12531142;28;20106;-86
2021/08/16 00:56:02;;;;;;;9.27;4.97;;;17.70;99.90;;;;;;12526723;28;20099;-85
2021/08/16 01:02:04;;;;;;;8.55;4.60;;;17.70;99.90;;;;;;12532512;28;20567;-85
2021/08/16 01:08:06;;;;;;;9.60;4.57;;;17.90;99.90;;;;;;12539516;28;20556;-84
2021/08/16 01:14:08;;;;;;;9.27;4.55;;;18.00;99.90;;;;;;12527140;28;20102;-85
2021/08/16 01:20:12;;;;;;;8.98;4.40;;;18.00;99.90;;;;;;12518324;28;20072;-85
2021/08/16 01:26:14;;;;;;;10.57;5.40;;;18.10;99.90;;;;;;12518616;28;20049;-85
2021/08/16 01:32:16;;;;;;;9.15;4.43;;;18.40;99.90;;;;;;12519542;28;20075;-85
2021/08/16 01:38:19;;;;;;;12.23;4.97;;;18.00;99.90;;;;;;12530054;28;20603;-85
2021/08/16 01:44:22;;;;;;;9.33;4.97;;;17.70;99.90;;;;;;12522010;28;20057;-85
2021/08/16 01:50:24;;;;;;;9.23;4.70;;;17.70;99.90;;;;;;12537612;28;20097;-84
2021/08/16 01:56:26;;;;;;;12.95;5.13;;;17.30;99.90;;;;;;12523375;28;20638;-84
2021/08/16 02:02:28;;;;;;;9.10;4.72;;;17.20;99.90;;;;;;12536261;28;20137;-83
2021/08/16 02:08:30;;;;;;;9.18;4.40;;;17.30;99.90;;;;;;12525730;28;20580;-84
2021/08/16 02:14:32;;;;;;;8.27;5.03;;;17.20;99.90;;;;;;12521510;28;20529;-84
2021/08/16 02:20:34;;;;;;;9.35;4.70;;;17.20;99.90;;;;;;12528549;28;20070;-84
2021/08/16 02:26:36;;;;;;;8.68;4.90;;;17.20;99.90;;;;;;12537124;28;20099;-84
2021/08/16 02:32:38;;;;;;;10.73;5.78;;;17.20;99.90;;;;;;12531896;28;20078;-84
2021/08/16 02:38:39;;;;;;;9.68;5.32;;;17.00;99.90;;;;;;12528995;28;20455;-84
2021/08/16 02:44:41;;;;;;;8.25;5.03;;;16.80;99.90;;;;;;12534682;28;20041;-84
2021/08/16 02:50:43;;;;;;;10.80;5.63;;;16.60;99.90;;;;;;12538516;28;20045;-84
2021/08/16 02:56:45;;;;;;;7.47;5.55;;;16.60;99.90;;;;;;12530271;28;20057;-83
2021/08/16 03:02:46;;;;;;;9.18;5.28;;;16.90;99.90;;;;;;12530457;28;20156;-84
2021/08/16 03:08:48;;;;;;;9.93;5.85;;;16.90;99.90;;;;;;12531035;28;20800;-84
2021/08/16 03:14:50;;;;;;;8.90;5.75;;;16.60;99.90;;;;;;12550082;28;20045;-84
2021/08/16 03:20:53;;;;;;;8.85;5.82;;;16.50;99.90;;;;;;12534490;28;20091;-84
2021/08/16 03:26:54;;;;;;;9.85;5.80;;;16.50;99.90;;;;;;12538045;28;20757;-84
2021/08/16 03:32:56;;;;;;;9.75;6.05;;;16.30;99.90;;;;;;12524679;28;20113;-83
2021/08/16 03:38:58;;;;;;;13.02;6.20;;;16.30;99.90;;;;;;12532711;28;20053;-84
2021/08/16 03:45:01;;;;;;;12.85;6.75;;;16.10;99.90;;;;;;12528155;28;20045;-83
2021/08/16 03:51:03;;;;;;;12.30;7.35;;;16.40;99.90;;;;;;12524517;28;20051;-84
2021/08/16 03:57:05;;;;;;;12.00;7.53;;;16.40;99.90;;;;;;12535413;28;20531;-84
2021/08/16 04:03:07;;;;;;;12.40;7.30;;;16.50;99.90;;;;;;12526607;28;20059;-84
2021/08/16 04:09:09;;;;;;;10.45;7.95;;;16.50;99.90;;;;;;12529264;28;20098;-84
2021/08/16 04:15:18;;;;;;;17.30;7.63;;;16.60;99.90;;;;;;12511818;28;20037;-84
2021/08/16 04:21:20;;;;;;;16.00;7.80;;;16.30;99.90;;;;;;12524100;28;20047;-85
2021/08/16 04:27:22;;;;;;;15.55;7.35;;;16.10;99.90;;;;;;12522178;28;20045;-83
2021/08/16 04:33:24;;;;;;;16.88;7.25;;;16.00;99.90;;;;;;12526184;28;20327;-84
2021/08/16 04:39:26;;;;;;;15.95;7.00;;;16.20;99.90;;;;;;12528013;28;20052;-84
2021/08/16 04:45:28;;;;;;;13.93;7.95;;;16.40;99.90;;;;;;12531994;28;20098;-84
2021/08/16 04:51:30;;;;;;;16.98;9.75;;;16.20;99.90;;;;;;12525943;28;20128;-84
2021/08/16 04:57:35;;;;;;;17.88;10.15;;;15.90;99.90;;;;;;12527106;28;20114;-85
2021/08/16 05:03:37;;;;;;;22.40;12.07;;;15.70;99.90;;;;;;12515933;28;20053;-84
2021/08/16 05:09:39;;;;;;;17.70;13.18;;;15.60;99.90;;;;;;12527322;28;20083;-83
2021/08/16 05:15:43;;;;;;;20.55;12.40;;;15.50;99.90;;;;;;12543620;28;20496;-85
2021/08/16 05:21:45;;;;;;;19.10;11.38;;;15.50;99.90;;;;;;12524181;28;20048;-84
2021/08/16 05:27:49;;;;;;;20.05;11.63;;;15.40;99.90;;;;;;12529098;28;20068;-84
2021/08/16 05:33:51;;;;;;;17.17;10.65;;;15.50;99.90;;;;;;12526161;28;20060;-86
2021/08/16 05:39:53;;;;;;;23.23;10.85;;;15.40;99.90;;;;;;12534978;28;20462;-85
2021/08/16 05:45:55;;;;;;;19.65;9.65;;;15.50;99.90;;;;;;12541357;28;20160;-83
2021/08/16 05:51:57;;;;;;;20.88;9.75;;;15.50;99.90;;;;;;12532885;28;20924;-84
2021/08/16 05:57:59;;;;;;;17.73;9.32;;;15.50;99.90;;;;;;12537651;28;20140;-83
2021/08/16 06:04:00;;;;;;;18.50;9.07;;;15.60;99.90;;;;;;12529382;28;20045;-82
2021/08/16 06:10:04;;;;;;;19.70;8.80;;;15.70;99.90;;;;;;12536714;28;20461;-83
2021/08/16 06:16:06;;;;;;;19.67;9.65;;;15.70;99.90;;;;;;12537019;28;20693;-84
2021/08/16 06:22:08;;;;;;;20.70;9.05;;;15.80;99.90;;;;;;12522294;28;20394;-85
2021/08/16 06:28:09;;;;;;;18.63;9.77;;;15.90;99.90;;;;;;12531500;28;20617;-83
2021/08/16 06:34:12;;;;;;;19.67;9.65;;;16.00;99.90;;;;;;12536124;28;20049;-83
2021/08/16 06:40:15;;;;;;;24.67;10.93;;;16.00;99.90;;;;;;12543037;28;20053;-83
2021/08/16 06:46:17;;;;;;;26.15;11.65;;;16.00;99.90;;;;;;12568302;28;20138;-84
2021/08/16 06:52:19;;;;;;;23.50;11.48;;;16.10;99.90;;;;;;12524499;28;20045;-84
2021/08/16 06:58:20;;;;;;;20.92;12.15;;;16.20;99.90;;;;;;12529256;28;20757;-83
2021/08/16 07:04:23;;;;;;;29.48;13.52;;;16.20;99.90;;;;;;12529145;28;20085;-84
2021/08/16 07:10:26;;;;;;;27.23;13.10;;;16.10;99.90;;;;;;12528550;28;20136;-83
2021/08/16 07:16:28;;;;;;;23.92;12.98;;;16.30;99.90;;;;;;12528433;28;20056;-84
2021/08/16 07:22:30;;;;;;;21.33;12.98;;;16.20;99.90;;;;;;12530323;28;20098;-84
2021/08/16 07:28:32;;;;;;;21.98;13.63;;;16.40;99.90;;;;;;12533527;28;20106;-84
2021/08/16 07:34:36;;;;;;;27.40;16.40;;;16.40;99.90;;;;;;12530785;28;20044;-83
2021/08/16 07:40:38;;;;;;;25.10;14.85;;;16.60;99.90;;;;;;12536023;28;20097;-83
2021/08/16 07:46:40;;;;;;;26.15;15.80;;;16.50;99.90;;;;;;12523249;28;20481;-83
2021/08/16 07:52:43;;;;;;;25.77;16.90;;;16.50;99.90;;;;;;12527391;28;20048;-83
2021/08/16 07:58:45;;;;;;;31.15;17.23;;;16.50;99.90;;;;;;12505859;28;20056;-83
2021/08/16 08:04:47;;;;;;;29.00;18.60;;;16.50;99.90;;;;;;12527135;28;20059;-85
2021/08/16 08:10:49;;;;;;;31.77;17.77;;;16.50;99.90;;;;;;12523013;28;20094;-83
2021/08/16 08:16:51;;;;;;;33.38;19.02;;;16.60;99.90;;;;;;12525596;28;20566;-84
2021/08/16 08:22:52;;;;;;;26.15;18.05;;;16.80;99.90;;;;;;12516205;28;20560;-83
2021/08/16 08:28:54;;;;;;;27.10;17.20;;;16.90;99.90;;;;;;12527442;28;20048;-84
2021/08/16 08:34:56;;;;;;;24.80;16.50;;;16.90;99.90;;;;;;12522731;28;20090;-84
2021/08/16 08:41:00;;;;;;;27.08;15.32;;;17.10;99.90;;;;;;12523280;28;20049;-84
2021/08/16 08:47:02;;;;;;;21.75;15.00;;;17.10;99.90;;;;;;12531007;28;20074;-83
2021/08/16 08:53:04;;;;;;;20.80;13.88;;;17.10;99.90;;;;;;12532505;28;20475;-83
2021/08/16 08:59:06;;;;;;;18.88;13.65;;;17.00;99.90;;;;;;12533423;28;20037;-83
2021/08/16 09:05:09;;;;;;;21.98;13.07;;;17.00;99.90;;;;;;12538048;28;20048;-83
2021/08/16 09:11:16;;;;;;;21.67;13.32;;;17.00;99.90;;;;;;12541419;28;20224;-82
2021/08/16 09:17:33;;;;;;;20.08;13.52;;;17.10;99.90;;;;;;12531650;28;20610;-84
2021/08/16 09:23:45;;;;;;;20.70;12.68;;;17.30;99.90;;;;;;12524605;28;20053;-83
2021/08/16 09:29:51;;;;;;;18.33;12.27;;;17.50;99.90;;;;;;12530822;28;20878;-83
2021/08/16 09:35:55;;;;;;;20.50;12.98;;;17.40;99.90;;;;;;12522855;28;20085;-85
2021/08/16 09:41:59;;;;;;;18.67;11.43;;;17.60;99.90;;;;;;12551131;28;20603;-83
2021/08/16 09:48:03;;;;;;;18.35;11.48;;;17.40;99.90;;;;;;12531697;28;20052;-85
2021/08/16 09:54:05;;;;;;;16.85;12.02;;;17.30;99.90;;;;;;12536363;28;20049;-83
2021/08/16 10:00:08;;;;;;;17.52;10.98;;;17.30;99.90;;;;;;12534094;28;20053;-84
2021/08/16 10:06:14;;;;;;;18.67;12.23;;;17.50;99.90;;;;;;12564510;28;20052;-86
2021/08/16 10:12:16;;;;;;;20.27;12.90;;;17.20;99.90;;;;;;12539554;28;20179;-84
2021/08/16 10:18:21;;;;;;;17.80;12.68;;;16.90;99.90;;;;;;12535235;28;20045;-84
2021/08/16 10:24:28;;;;;;;19.75;14.65;;;16.90;99.90;;;;;;12527390;28;20118;-84
2021/08/16 10:30:29;;;;;;;19.67;13.05;;;16.70;99.90;;;;;;12534005;28;20061;-85
2021/08/16 10:36:32;;;;;;;20.33;14.23;;;16.70;99.90;;;;;;12535537;28;20328;-84
2021/08/16 10:42:37;;;;;;;8.15;4.43;;;16.50;99.90;;;;;;12550344;28;20178;-83
2021/08/16 10:48:39;;;;;;;6.10;2.55;;;16.60;99.90;;;;;;12532492;28;20049;-84
2021/08/16 10:54:41;;;;;;;5.07;2.22;;;16.10;99.90;;;;;;12533226;28;20493;-83
2021/08/16 11:00:43;;;;;;;5.03;2.55;;;16.00;99.90;;;;;;12529728;28;20044;-84
2021/08/16 11:06:55;;;;;;;8.18;3.20;;;16.10;99.90;;;;;;12538885;28;20048;-83
2021/08/16 11:12:58;;;;;;;6.07;2.83;;;15.90;99.90;;;;;;12541983;28;20086;-85
2021/08/16 11:19:00;;;;;;;6.35;2.88;;;15.80;99.90;;;;;;12537430;28;20052;-85
2021/08/16 11:25:07;;;;;;;5.25;3.15;;;15.90;99.90;;;;;;12539825;28;20064;-84
2021/08/16 11:31:08;;;;;;;6.22;2.90;;;15.90;99.90;;;;;;12561524;28;20072;-84
2021/08/16 11:37:13;;;;;;;7.47;3.50;;;16.10;99.90;;;;;;12548330;28;20057;-85
2021/08/16 11:43:24;;;;;;;19.00;4.57;;;15.70;99.90;;;;;;12546790;28;20414;-84
2021/08/16 11:49:34;;;;;;;11.27;3.63;;;15.80;99.90;;;;;;12539819;28;20095;-85
2021/08/16 11:55:36;;;;;;;6.63;3.08;;;15.70;99.90;;;;;;12539997;28;20045;-84
2021/08/16 12:01:40;;;;;;;6.15;3.45;;;15.40;99.90;;;;;;12536419;28;20483;-83
2021/08/16 12:07:44;;;;;;;;;;;15.30;99.90;;;;;;12539105;28;20487;-84
2021/08/16 12:13:57;;;;;;;8.27;4.00;;;15.40;99.90;;;;;;12530690;28;20543;-84
2021/08/16 12:19:59;;;;;;;9.48;4.22;;;15.30;99.90;;;;;;12540025;28;20135;-84
2021/08/16 12:26:03;;;;;;;7.97;4.22;;;15.50;99.90;;;;;;12537436;28;20075;-84
2021/08/16 12:32:17;;;;;;;7.43;4.65;;;15.40;99.90;;;;;;12533220;28;20042;-84
2021/08/16 12:38:26;;;;;;;8.30;4.53;;;15.40;99.90;;;;;;12536325;28;20050;-84
2021/08/16 12:44:27;;;;;;;9.23;4.90;;;15.40;99.90;;;;;;12535274;28;20105;-84
2021/08/16 12:50:32;;;;;;;7.15;4.43;;;15.50;99.90;;;;;;12524365;28;20060;-83
2021/08/16 12:56:33;;;;;;;7.93;5.10;;;15.40;99.90;;;;;;12523967;28;20053;-84
2021/08/16 13:02:35;;;;;;;8.95;5.05;;;15.50;99.90;;;;;;12528717;28;20060;-84
2021/08/16 13:08:37;;;;;;;9.55;5.10;;;15.60;99.90;;;;;;12529246;28;20160;-83
2021/08/16 13:14:40;;;;;;;7.80;4.57;;;15.70;99.90;;;;;;12532862;28;20053;-83
2021/08/16 13:20:42;;;;;;;13.60;4.80;;;15.70;99.90;;;;;;12535095;28;20178;-84
2021/08/16 13:26:44;;;;;;;6.63;4.65;;;15.70;99.90;;;;;;12547094;28;20050;-84
2021/08/16 13:32:46;;;;;;;7.53;3.05;;;15.80;99.90;;;;;;12545585;28;20172;-83
2021/08/16 13:38:48;;;;;;;11.45;3.38;;;16.10;99.90;;;;;;12545095;28;20053;-84
2021/08/16 13:44:50;;;;;;;6.85;2.72;;;16.10;99.90;;;;;;12527741;28;20052;-82
2021/08/16 13:50:52;;;;;;;7.35;2.03;;;16.00;99.90;;;;;;12533649;28;20052;-82
2021/08/16 13:56:54;;;;;;;6.22;1.77;;;15.50;99.90;;;;;;12540907;28;20569;-83
2021/08/16 14:02:55;;;;;;;8.77;2.20;;;14.60;99.90;;;;;;12538397;28;20044;-83
2021/08/16 14:08:57;;;;;;;4.78;1.70;;;14.00;99.90;;;;;;12541843;28;20061;-84
2021/08/16 14:14:59;;;;;;;4.10;1.80;;;13.90;99.90;;;;;;12534509;28;20052;-84
2021/08/16 14:21:01;;;;;;;8.35;2.25;;;14.00;99.90;;;;;;12535797;28;20072;-83
2021/08/16 14:27:04;;;;;;;6.55;2.45;;;14.00;99.90;;;;;;12535690;28;20044;-84
2021/08/16 14:33:06;;;;;;;8.20;2.67;;;14.00;99.90;;;;;;12531766;28;20044;-84
2021/08/16 14:39:08;;;;;;;8.27;2.10;;;14.10;99.90;;;;;;12531736;28;20076;-85
2021/08/16 14:45:11;;;;;;;7.10;2.22;;;14.10;99.90;;;;;;12532785;28;21416;-84
2021/08/16 14:51:13;;;;;;;7.10;2.60;;;14.10;99.90;;;;;;12530522;28;20045;-83
2021/08/16 14:57:15;;;;;;;8.18;2.60;;;14.20;99.90;;;;;;12531778;28;20052;-83
2021/08/16 15:03:18;;;;;;;6.63;2.35;;;14.20;99.90;;;;;;12538848;28;20045;-84
2021/08/16 15:09:20;;;;;;;7.80;2.42;;;14.30;99.90;;;;;;12529022;28;20052;-84
2021/08/16 15:15:22;;;;;;;11.57;2.40;;;14.40;99.90;;;;;;12537284;28;20093;-84
2021/08/16 15:21:24;;;;;;;6.18;2.70;;;14.30;99.90;;;;;;12536388;28;20052;-84
2021/08/16 15:27:26;;;;;;;9.55;3.10;;;14.30;99.90;;;;;;12532668;28;20102;-83
2021/08/16 15:33:28;;;;;;;14.88;3.08;;;14.30;99.90;;;;;;12527627;28;20110;-85
2021/08/16 15:39:30;;;;;;;7.95;3.05;;;14.30;99.90;;;;;;12543727;28;20737;-83
2021/08/16 15:45:33;;;;;;;8.40;2.95;;;14.20;99.90;;;;;;12529711;28;20060;-83
2021/08/16 15:51:35;;;;;;;12.70;4.05;;;14.30;99.90;;;;;;12528448;28;20507;-82
2021/08/16 15:57:36;;;;;;;12.95;2.42;;;14.40;99.90;;;;;;12534446;28;20060;-83
2021/08/16 16:03:38;;;;;;;14.57;2.95;;;14.10;99.90;;;;;;12534795;28;20240;-84
2021/08/16 16:09:40;;;;;;;11.52;2.88;;;14.40;99.90;;;;;;12526458;28;20107;-85
2021/08/16 16:15:42;;;;;;;8.40;2.55;;;14.60;99.90;;;;;;12535543;28;20052;-85
2021/08/16 16:21:45;;;;;;;15.02;3.30;;;14.50;99.90;;;;;;12526946;28;20053;-84
2021/08/16 16:27:47;;;;;;;9.88;3.10;;;14.70;99.90;;;;;;12540752;28;20052;-84
2021/08/16 16:33:59;;;;;;;10.68;2.90;;;15.00;99.90;;;;;;12538088;28;20267;-83
2021/08/16 16:40:02;;;;;;;9.95;2.95;;;15.60;99.90;;;;;;12537607;28;20976;-83
2021/08/16 16:46:04;;;;;;;13.32;3.05;;;15.50;99.90;;;;;;12538264;28;20052;-83
2021/08/16 16:52:06;;;;;;;9.15;2.58;;;15.40;99.90;;;;;;12534155;28;20773;-84
2021/08/16 16:58:08;;;;;;;10.60;2.58;;;15.40;99.90;;;;;;12536601;28;20088;-83
2021/08/16 17:04:11;;;;;;;12.15;2.67;;;15.10;99.90;;;;;;12556400;28;20041;-83
2021/08/16 17:10:13;;;;;;;15.00;3.00;;;15.20;99.90;;;;;;12544073;28;20390;-82
2021/08/16 17:16:16;;;;;;;10.00;3.30;;;15.20;99.90;;;;;;12536878;28;20110;-83
2021/08/16 17:22:18;;;;;;;8.07;2.50;;;15.20;99.90;;;;;;12524993;28;20044;-83
2021/08/16 17:28:22;;;;;;;11.65;2.90;;;15.30;99.90;;;;;;12531324;28;20052;-83
2021/08/16 17:34:24;;;;;;;8.00;2.20;;;15.40;99.90;;;;;;12529698;28;20694;-82
2021/08/16 17:40:26;;;;;;;8.48;2.08;;;15.60;99.90;;;;;;12537445;28;20052;-84
2021/08/16 17:46:28;;;;;;;8.07;1.83;;;15.80;99.90;;;;;;12533670;28;20482;-82
2021/08/16 17:52:30;;;;;;;7.35;1.40;;;15.80;99.90;;;;;;12534831;28;20074;-82
2021/08/16 17:58:32;;;;;;;6.20;1.25;;;15.70;99.90;;;;;;12533911;28;20144;-82
2021/08/16 18:04:34;;;;;;;8.75;1.45;;;15.30;99.90;;;;;;12533310;28;20117;-82
2021/08/16 18:10:36;;;;;;;6.03;1.50;;;15.20;99.90;;;;;;12527098;28;20564;-82
2021/08/16 18:16:39;;;;;;;10.27;1.52;;;15.00;99.90;;;;;;12530677;28;20544;-82
2021/08/16 18:22:42;;;;;;;4.00;1.50;;;14.90;99.90;;;;;;12527710;28;20468;-82
2021/08/16 18:28:44;;;;;;;9.43;1.73;;;14.80;99.90;;;;;;12528701;28;20570;-82
2021/08/16 18:34:46;;;;;;;7.43;1.70;;;14.60;99.90;;;;;;12529337;28;20081;-83
2021/08/16 18:40:48;;;;;;;6.63;1.50;;;14.70;99.90;;;;;;12529630;28;21297;-82
2021/08/16 18:46:50;;;;;;;8.55;1.67;;;14.50;99.90;;;;;;12521306;28;20052;-82
2021/08/16 18:52:52;;;;;;;6.90;1.50;;;14.40;99.90;;;;;;12524700;28;20045;-82
2021/08/16 18:58:54;;;;;;;4.63;1.27;;;14.40;99.90;;;;;;12532212;28;20136;-82
2021/08/16 19:04:56;;;;;;;6.25;1.75;;;14.30;99.90;;;;;;12522912;28;20048;-83
2021/08/16 19:10:58;;;;;;;8.63;1.73;;;14.20;99.90;;;;;;12528705;28;20049;-83
2021/08/16 19:16:59;;;;;;;7.50;1.38;;;14.20;99.90;;;;;;12524844;28;20076;-82
2021/08/16 19:23:02;;;;;;;7.53;1.52;;;14.10;99.90;;;;;;12532067;28;20044;-82
2021/08/16 19:29:03;;;;;;;14.43;1.80;;;14.00;99.90;;;;;;12525311;28;20045;-84
2021/08/16 19:35:05;;;;;;;11.82;2.05;;;13.80;99.90;;;;;;12527024;28;20049;-83
2021/08/16 19:41:07;;;;;;;15.23;2.05;;;13.70;99.90;;;;;;12517672;28;20070;-82
2021/08/16 19:47:09;;;;;;;14.07;1.80;;;13.80;99.90;;;;;;12527629;28;20099;-81
2021/08/16 19:53:11;;;;;;;9.63;1.55;;;13.80;99.90;;;;;;12523476;28;20045;-84
2021/08/16 19:59:13;;;;;;;7.57;1.52;;;13.90;99.90;;;;;;12527480;28;20542;-82
2021/08/16 20:05:15;;;;;;;8.35;1.52;;;13.70;99.90;;;;;;12520860;28;20068;-82
2021/08/16 20:11:19;;;;;;;12.75;1.80;;;13.60;99.90;;;;;;12526203;28;20072;-83
2021/08/16 20:17:21;;;;;;;8.27;1.85;;;13.90;99.90;;;;;;12526102;28;20124;-83
2021/08/16 20:23:23;;;;;;;9.25;2.05;;;13.90;99.90;;;;;;12520887;28;20467;-83
2021/08/16 20:29:25;;;;;;;9.95;1.80;;;13.80;99.90;;;;;;12529353;28;20068;-84
2021/08/16 20:35:26;;;;;;;7.25;1.73;;;13.80;99.90;;;;;;12542941;28;20052;-81
2021/08/16 20:41:28;;;;;;;13.10;2.25;;;13.70;99.90;;;;;;12518614;28;20122;-81
2021/08/16 20:47:30;;;;;;;7.75;1.58;;;13.80;99.90;;;;;;12530094;28;20082;-83
2021/08/16 20:53:32;;;;;;;5.70;1.58;;;14.00;99.90;;;;;;12552034;28;20065;-83
2021/08/16 20:59:34;;;;;;;7.40;1.42;;;14.00;99.90;;;;;;12522014;28;20096;-83
2021/08/16 21:05:36;;;;;;;8.00;1.65;;;14.10;99.90;;;;;;12513451;28;20126;-82
2021/08/16 21:11:38;;;;;;;9.38;1.52;;;14.00;99.90;;;;;;12526929;28;20513;-82
2021/08/16 21:17:39;;;;;;;7.70;1.77;;;13.90;99.90;;;;;;12523519;28;20078;-83
2021/08/16 21:23:42;;;;;;;8.63;1.77;;;13.80;99.90;;;;;;12526048;28;20495;-83
2021/08/16 21:29:44;;;;;;;9.60;1.70;;;13.80;99.90;;;;;;12527780;28;20195;-82
2021/08/16 21:35:49;;;;;;;7.80;1.83;;;13.90;99.90;;;;;;12526917;28;20407;-83
2021/08/16 21:41:50;;;;;;;6.28;1.60;;;13.90;99.90;;;;;;12527546;28;20052;-83
2021/08/16 21:47:52;;;;;;;9.00;1.83;;;13.80;99.90;;;;;;12534846;28;20102;-82
2021/08/16 21:53:55;;;;;;;8.43;1.58;;;13.70;99.90;;;;;;12523857;28;20056;-84
2021/08/16 21:59:57;;;;;;;8.45;1.80;;;13.60;99.90;;;;;;12537248;28;20052;-84
2021/08/16 22:05:59;;;;;;;11.40;1.73;;;13.50;99.90;;;;;;12529137;28;20047;-82
2021/08/16 22:12:01;;;;;;;7.78;1.70;;;13.50;99.90;;;;;;12538951;28;20090;-83
2021/08/16 22:18:03;;;;;;;11.38;2.47;;;13.50;99.90;;;;;;12527631;28;20064;-83
2021/08/16 22:24:06;;;;;;;8.27;2.03;;;13.50;99.90;;;;;;12514858;28;20044;-83
2021/08/16 22:30:09;;;;;;;8.38;1.80;;;13.50;99.90;;;;;;12518179;28;20073;-83
2021/08/16 22:36:11;;;;;;;9.32;1.70;;;13.40;99.90;;;;;;12528129;28;20041;-84
2021/08/16 22:42:12;;;;;;;8.90;2.00;;;13.30;99.90;;;;;;12540778;28;20572;-83
2021/08/16 22:48:14;;;;;;;7.80;1.83;;;13.40;99.90;;;;;;12533452;28;20481;-83
2021/08/16 22:54:17;;;;;;;7.82;1.42;;;13.30;99.90;;;;;;12537735;28;20068;-83
2021/08/16 23:00:21;;;;;;;10.90;2.03;;;13.20;99.90;;;;;;12532989;28;20045;-83
2021/08/16 23:06:23;;;;;;;8.15;1.80;;;13.20;99.90;;;;;;12529099;28;20438;-83
2021/08/16 23:12:27;;;;;;;8.50;1.85;;;13.10;99.90;;;;;;12532559;28;20106;-84
2021/08/16 23:18:29;;;;;;;10.40;2.30;;;12.90;99.90;;;;;;12535292;28;20497;-83
2021/08/16 23:24:30;;;;;;;10.70;1.95;;;13.10;99.90;;;;;;12525773;28;20077;-85
2021/08/16 23:30:32;;;;;;;8.93;1.85;;;13.10;99.90;;;;;;12532121;28;20521;-84
2021/08/16 23:36:34;;;;;;;9.50;1.85;;;12.90;99.90;;;;;;12536120;28;20049;-84
2021/08/16 23:42:36;;;;;;;7.45;2.13;;;12.70;99.90;;;;;;12533103;28;20041;-84
2021/08/16 23:48:38;;;;;;;8.05;2.05;;;12.80;99.90;;;;;;12528373;28;20041;-84
2021/08/16 23:54:40;;;;;;;7.35;2.33;;;12.80;99.90;;;;;;12533823;28;20053;-85
